Time;durP1;ratioP1;P1;durP2;ratioP2;P2;SDS_P1;SDS_P2;PMS_P1;PMS_P2;Temp;Humidity;BMP_temperature;BMP_pressure;BME280_temperature;BME280_humidity;BME280_pressure;Samples;Min_cycle;Max_cycle;Signal;HPM_P1;HPM_P2
2022/08/14 00:00:44;;;;;;;10.65;6.80;;;;;;;;;;5028807;28;20489;-84
2022/08/14 00:03:19;;;;;;;8.65;7.18;;;;;;;;;;5029300;28;20397;-84
2022/08/14 00:05:45;;;;;;;11.13;8.03;;;;;;;;;;5028322;28;20045;-83
2022/08/14 00:08:11;;;;;;;8.30;7.03;;;;;;;;;;5028682;28;20049;-84
2022/08/14 00:10:37;;;;;;;10.27;7.53;;;;;;;;;;5028528;28;20054;-84
2022/08/14 00:13:03;;;;;;;8.55;7.47;;;;;;;;;;5028611;28;20057;-84
2022/08/14 00:15:31;;;;;;;8.98;7.20;;;;;;;;;;5029714;28;20387;-84
2022/08/14 00:17:57;;;;;;;8.50;7.57;;;;;;;;;;5011473;28;20056;-84
2022/08/14 00:20:25;;;;;;;9.00;7.80;;;;;;;;;;5028676;28;20513;-84
2022/08/14 00:22:51;;;;;;;9.07;7.50;;;;;;;;;;5030033;28;20497;-84
2022/08/14 00:25:17;;;;;;;8.57;7.72;;;;;;;;;;5030107;28;20045;-84
2022/08/14 00:27:43;;;;;;;8.23;7.43;;;;;;;;;;5029961;28;20105;-84
2022/08/14 00:30:10;;;;;;;8.88;7.97;;;;;;;;;;5027963;28;20081;-83
2022/08/14 00:32:36;;;;;;;8.98;7.85;;;;;;;;;;5029303;28;20120;-84
2022/08/14 00:35:06;;;;;;;10.02;8.27;;;;;;;;;;5030359;28;20400;-84
2022/08/14 00:37:33;;;;;;;9.00;8.10;;;;;;;;;;5048507;28;20269;-84
2022/08/14 00:39:59;;;;;;;10.70;8.38;;;;;;;;;;5027251;28;20052;-84
2022/08/14 00:42:25;;;;;;;8.90;7.97;;;;;;;;;;5029283;28;20041;-83
2022/08/14 00:44:52;;;;;;;9.88;8.68;;;;;;;;;;5028691;28;20054;-84
2022/08/14 00:47:18;;;;;;;8.68;7.60;;;;;;;;;;5028423;28;20041;-84
2022/08/14 00:49:44;;;;;;;12.80;8.77;;;;;;;;;;5028798;28;20041;-84
2022/08/14 00:52:12;;;;;;;11.68;8.88;;;;;;;;;;5028203;28;20045;-83
2022/08/14 00:54:39;;;;;;;9.90;8.90;;;;;;;;;;5029715;28;20064;-83
2022/08/14 00:57:05;;;;;;;11.20;8.45;;;;;;;;;;5011638;28;20139;-83
2022/08/14 00:59:31;;;;;;;11.38;9.25;;;;;;;;;;5032130;28;20068;-83
2022/08/14 01:01:58;;;;;;;9.70;8.70;;;;;;;;;;5033037;28;20041;-83
2022/08/14 01:04:25;;;;;;;10.35;8.85;;;;;;;;;;5032892;28;20044;-84
2022/08/14 01:06:52;;;;;;;13.07;9.52;;;;;;;;;;5032830;28;20057;-84
2022/08/14 01:09:21;;;;;;;10.55;9.30;;;;;;;;;;5032182;28;20095;-84
2022/08/14 01:11:48;;;;;;;11.93;9.75;;;;;;;;;;5033286;28;20046;-83
2022/08/14 01:14:15;;;;;;;12.13;10.05;;;;;;;;;;5033179;28;20129;-83
2022/08/14 01:16:41;;;;;;;10.95;9.50;;;;;;;;;;5031665;28;20073;-83
2022/08/14 01:21:52;;;;;;;10.95;9.80;;;;;;;;;;5033522;28;20128;-83
2022/08/14 01:24:20;;;;;;;12.10;9.98;;;;;;;;;;5033167;28;20516;-83
2022/08/14 01:26:46;;;;;;;9.57;8.68;;;;;;;;;;5032927;28;20046;-83
2022/08/14 01:29:12;;;;;;;10.65;8.60;;;;;;;;;;5033066;28;20046;-84
2022/08/14 01:31:46;;;;;;;10.75;9.00;;;;;;;;;;5032075;28;20456;-83
2022/08/14 01:34:12;;;;;;;9.98;8.98;;;;;;;;;;5034704;28;20076;-83
2022/08/14 01:36:38;;;;;;;12.38;10.20;;;;;;;;;;5048693;28;20061;-83
2022/08/14 01:39:07;;;;;;;11.98;10.75;;;;;;;;;;5031343;28;20091;-83
2022/08/14 01:41:35;;;;;;;11.90;10.00;;;;;;;;;;5032537;28;20045;-83
2022/08/14 01:44:03;;;;;;;11.98;10.00;;;;;;;;;;5031308;28;20053;-83
2022/08/14 01:46:31;;;;;;;13.40;10.88;;;;;;;;;;5031671;28;20049;-84
2022/08/14 01:48:57;;;;;;;12.20;10.88;;;;;;;;;;5029847;28;20053;-83
2022/08/14 01:51:24;;;;;;;12.82;10.82;;;;;;;;;;5032277;28;20041;-83
2022/08/14 01:53:52;;;;;;;11.02;9.93;;;;;;;;;;5050921;28;20421;-83
2022/08/14 01:56:22;;;;;;;11.32;10.23;;;;;;;;;;5051029;28;20049;-83
2022/08/14 01:58:49;;;;;;;15.55;10.82;;;;;;;;;;5051327;28;20053;-83
2022/08/14 02:01:19;;;;;;;12.27;10.98;;;;;;;;;;5051136;28;20049;-84
2022/08/14 02:03:46;;;;;;;12.60;10.77;;;;;;;;;;5038095;28;20061;-83
2022/08/14 02:06:13;;;;;;;12.13;10.85;;;;;;;;;;5031699;28;20052;-83
2022/08/14 02:08:40;;;;;;;12.57;10.93;;;;;;;;;;5032499;28;20135;-83
2022/08/14 02:11:21;;;;;;;12.30;10.98;;;;;;;;;;5031096;28;20073;-83
2022/08/14 02:13:59;;;;;;;11.75;10.55;;;;;;;;;;5031878;28;20053;-83
2022/08/14 02:16:28;;;;;;;12.60;11.40;;;;;;;;;;5031383;28;20049;-83
2022/08/14 02:18:56;;;;;;;11.23;10.02;;;;;;;;;;5029601;28;20045;-83
2022/08/14 02:21:22;;;;;;;10.95;9.85;;;;;;;;;;5033652;28;20045;-83
2022/08/14 02:23:49;;;;;;;12.10;11.00;;;;;;;;;;5031066;28;20057;-83
2022/08/14 02:26:18;;;;;;;12.57;10.65;;;;;;;;;;5031730;28;20045;-83
2022/08/14 02:28:45;;;;;;;12.73;11.43;;;;;;;;;;5032024;28;20037;-83
2022/08/14 02:31:11;;;;;;;12.40;11.20;;;;;;;;;;5030840;28;20045;-83
2022/08/14 02:33:40;;;;;;;12.57;11.20;;;;;;;;;;5045970;28;20044;-83
2022/08/14 02:36:06;;;;;;;17.27;11.52;;;;;;;;;;5030654;28;20409;-83
2022/08/14 02:38:33;;;;;;;12.48;10.63;;;;;;;;;;5030010;28;20047;-83
2022/08/14 02:40:59;;;;;;;12.77;10.95;;;;;;;;;;5031411;28;20045;-84
2022/08/14 02:43:28;;;;;;;12.15;10.82;;;;;;;;;;5032099;28;20080;-83
2022/08/14 02:45:54;;;;;;;12.23;10.93;;;;;;;;;;5030765;28;20049;-83
2022/08/14 02:48:20;;;;;;;11.73;10.52;;;;;;;;;;5030183;28;20079;-83
2022/08/14 02:50:46;;;;;;;12.60;10.77;;;;;;;;;;5030626;28;20068;-83
2022/08/14 02:53:12;;;;;;;13.05;11.05;;;;;;;;;;5031080;28;20096;-84
2022/08/14 02:55:39;;;;;;;12.55;11.25;;;;;;;;;;5031762;28;20103;-83
2022/08/14 02:58:06;;;;;;;13.13;11.82;;;;;;;;;;5029958;28;20047;-83
2022/08/14 03:00:34;;;;;;;12.25;11.05;;;;;;;;;;5030471;28;20084;-83
2022/08/14 03:03:01;;;;;;;12.80;11.50;;;;;;;;;;5028305;28;20052;-83
2022/08/14 03:05:30;;;;;;;12.85;11.57;;;;;;;;;;5031327;28;20057;-83
2022/08/14 03:08:07;;;;;;;16.45;11.93;;;;;;;;;;5030630;28;20048;-83
2022/08/14 03:10:33;;;;;;;13.18;11.85;;;;;;;;;;5030366;28;20395;-83
2022/08/14 03:13:03;;;;;;;12.98;11.65;;;;;;;;;;5029712;28;20077;-83
2022/08/14 03:15:29;;;;;;;14.15;12.45;;;;;;;;;;5031177;28;20046;-83
2022/08/14 03:17:55;;;;;;;14.07;12.60;;;;;;;;;;5044036;28;20041;-83
2022/08/14 03:20:21;;;;;;;14.60;12.35;;;;;;;;;;5013063;28;20045;-83
2022/08/14 03:22:47;;;;;;;13.65;12.25;;;;;;;;;;5029495;28;20099;-83
2022/08/14 03:25:13;;;;;;;13.93;12.30;;;;;;;;;;5029543;28;20391;-83
2022/08/14 03:27:39;;;;;;;16.40;13.20;;;;;;;;;;5031324;28;20048;-83
2022/08/14 03:30:06;;;;;;;14.20;12.70;;;;;;;;;;5030917;28;20107;-83
2022/08/14 03:32:32;;;;;;;15.02;13.50;;;;;;;;;;5044033;28;20122;-83
2022/08/14 03:34:59;;;;;;;14.68;13.05;;;;;;;;;;5012686;28;20139;-83
2022/08/14 03:37:25;;;;;;;14.68;13.07;;;;;;;;;;5030201;28;20410;-83
2022/08/14 03:39:52;;;;;;;15.63;13.50;;;;;;;;;;5030870;28;20439;-83
2022/08/14 03:42:18;;;;;;;14.98;13.15;;;;;;;;;;5028430;28;20132;-83
2022/08/14 03:44:44;;;;;;;15.55;12.73;;;;;;;;;;5029496;28;20131;-83
2022/08/14 03:47:10;;;;;;;14.48;12.80;;;;;;;;;;5028342;28;20046;-83
2022/08/14 03:49:38;;;;;;;14.50;13.00;;;;;;;;;;5030511;28;20041;-83
2022/08/14 03:52:04;;;;;;;14.98;13.48;;;;;;;;;;5028528;28;20513;-83
2022/08/14 03:54:34;;;;;;;14.52;12.77;;;;;;;;;;5029315;28;20052;-83
2022/08/14 03:57:00;;;;;;;14.73;12.70;;;;;;;;;;5038362;28;20045;-83
2022/08/14 03:59:27;;;;;;;15.32;13.70;;;;;;;;;;5050389;28;20103;-83
2022/08/14 04:01:53;;;;;;;16.55;14.15;;;;;;;;;;5041241;28;20386;-83
2022/08/14 04:04:19;;;;;;;15.18;13.57;;;;;;;;;;5029979;28;20080;-83
2022/08/14 04:06:45;;;;;;;16.17;14.57;;;;;;;;;;5028931;28;20037;-83
2022/08/14 04:09:11;;;;;;;15.75;14.15;;;;;;;;;;5028975;28;20037;-83
2022/08/14 04:11:38;;;;;;;14.98;13.35;;;;;;;;;;5011791;28;20057;-83
2022/08/14 04:14:04;;;;;;;16.27;13.93;;;;;;;;;;5028320;28;20049;-83
2022/08/14 04:16:30;;;;;;;15.45;12.88;;;;;;;;;;5029314;28;20132;-83
2022/08/14 04:18:57;;;;;;;16.00;13.82;;;;;;;;;;5027022;28;20041;-83
2022/08/14 04:21:26;;;;;;;16.23;13.40;;;;;;;;;;5028292;28;20057;-83
2022/08/14 04:23:53;;;;;;;16.05;13.73;;;;;;;;;;5029076;28;20045;-83
2022/08/14 04:26:21;;;;;;;14.07;12.68;;;;;;;;;;5036187;28;20033;-83
2022/08/14 04:28:48;;;;;;;15.15;13.65;;;;;;;;;;5048924;28;20044;-83
2022/08/14 04:31:15;;;;;;;14.93;13.27;;;;;;;;;;5048388;28;20463;-83
2022/08/14 04:33:41;;;;;;;15.20;13.70;;;;;;;;;;5031961;28;20099;-83
2022/08/14 04:36:07;;;;;;;14.25;12.73;;;;;;;;;;5028032;28;20064;-83
2022/08/14 04:44:03;;;;;;;12.75;11.45;;;;;;;;;;5029652;28;20454;-83
2022/08/14 04:46:30;;;;;;;15.45;13.10;;;;;;;;;;5028492;28;20477;-83
2022/08/14 04:48:56;;;;;;;13.75;12.32;;;;;;;;;;5027500;28;20069;-83
2022/08/14 04:51:26;;;;;;;13.10;11.63;;;;;;;;;;5029839;28;20100;-83
2022/08/14 04:53:53;;;;;;;14.43;12.93;;;;;;;;;;5028629;28;20398;-83
2022/08/14 04:56:21;;;;;;;12.85;11.50;;;;;;;;;;5030051;28;20474;-84
2022/08/14 04:58:48;;;;;;;16.17;14.07;;;;;;;;;;5028698;28;20084;-83
2022/08/14 05:01:14;;;;;;;14.45;12.98;;;;;;;;;;5029694;28;20128;-84
2022/08/14 05:03:41;;;;;;;14.73;13.13;;;;;;;;;;5026511;28;20486;-83
2022/08/14 05:06:08;;;;;;;14.55;12.88;;;;;;;;;;5027767;28;20486;-83
2022/08/14 05:08:34;;;;;;;15.63;12.32;;;;;;;;;;5029659;28;20091;-83
2022/08/14 05:11:01;;;;;;;14.77;12.95;;;;;;;;;;5029408;28;20128;-83
2022/08/14 05:13:28;;;;;;;14.40;12.90;;;;;;;;;;5027803;28;20053;-83
2022/08/14 05:15:56;;;;;;;14.60;13.13;;;;;;;;;;5029662;28;20053;-83
2022/08/14 05:18:23;;;;;;;15.02;13.02;;;;;;;;;;5026103;28;20041;-83
2022/08/14 05:20:50;;;;;;;15.27;13.15;;;;;;;;;;5028428;28;20445;-83
2022/08/14 05:23:17;;;;;;;17.40;13.68;;;;;;;;;;5029217;28;20049;-83
2022/08/14 05:25:44;;;;;;;15.10;13.60;;;;;;;;;;5028279;28;20487;-83
2022/08/14 05:28:18;;;;;;;15.50;13.10;;;;;;;;;;5027914;28;20489;-83
2022/08/14 05:30:48;;;;;;;14.32;12.90;;;;;;;;;;5028487;28;20513;-83
2022/08/14 05:33:15;;;;;;;15.27;12.98;;;;;;;;;;5028998;28;20065;-83
2022/08/14 05:35:41;;;;;;;14.27;12.85;;;;;;;;;;5035916;28;20048;-83
2022/08/14 05:38:15;;;;;;;14.73;13.23;;;;;;;;;;5027920;28;20088;-84
2022/08/14 05:40:42;;;;;;;15.15;13.20;;;;;;;;;;5028264;28;20064;-84
2022/08/14 05:43:09;;;;;;;16.00;13.25;;;;;;;;;;5027701;28;20045;-83
2022/08/14 05:45:35;;;;;;;16.17;13.73;;;;;;;;;;5032749;28;20034;-83
2022/08/14 05:48:01;;;;;;;15.85;13.10;;;;;;;;;;5033579;28;20120;-83
2022/08/14 05:50:27;;;;;;;14.02;12.73;;;;;;;;;;5051478;28;20056;-83
2022/08/14 05:52:54;;;;;;;15.25;13.55;;;;;;;;;;5052797;28;20094;-83
2022/08/14 05:55:21;;;;;;;14.05;12.65;;;;;;;;;;5051437;28;20088;-84
2022/08/14 05:57:47;;;;;;;16.15;13.18;;;;;;;;;;5052853;28;20045;-85
2022/08/14 06:00:14;;;;;;;14.02;12.52;;;;;;;;;;5052457;28;20495;-84
2022/08/14 06:02:40;;;;;;;14.80;13.27;;;;;;;;;;5044146;28;20163;-86
2022/08/14 06:05:06;;;;;;;13.48;12.13;;;;;;;;;;5051079;28;20060;-86
2022/08/14 06:07:35;;;;;;;13.85;12.45;;;;;;;;;;5034617;28;20104;-87
2022/08/14 06:10:01;;;;;;;14.35;12.43;;;;;;;;;;5032324;28;20069;-84
2022/08/14 06:12:29;;;;;;;16.38;12.80;;;;;;;;;;5032576;28;20127;-84
2022/08/14 06:14:55;;;;;;;14.27;12.70;;;;;;;;;;5031033;28;20517;-84
2022/08/14 06:17:21;;;;;;;13.50;12.15;;;;;;;;;;5029264;28;20129;-84
2022/08/14 06:19:47;;;;;;;13.98;12.52;;;;;;;;;;5049309;28;20088;-84
2022/08/14 06:22:13;;;;;;;14.55;12.77;;;;;;;;;;5051062;28;20388;-83
2022/08/14 06:24:39;;;;;;;14.55;12.45;;;;;;;;;;5052294;28;20049;-84
2022/08/14 06:27:06;;;;;;;14.50;12.68;;;;;;;;;;5050774;28;20110;-84
2022/08/14 06:29:32;;;;;;;14.25;12.13;;;;;;;;;;5049699;28;20098;-84
2022/08/14 06:31:58;;;;;;;14.32;12.32;;;;;;;;;;5033544;28;20056;-84
2022/08/14 06:34:24;;;;;;;13.68;12.10;;;;;;;;;;5031784;28;20477;-84
2022/08/14 06:36:50;;;;;;;13.90;11.90;;;;;;;;;;5032154;28;20045;-84
2022/08/14 06:39:16;;;;;;;13.40;11.60;;;;;;;;;;5029248;28;20041;-84
2022/08/14 06:41:42;;;;;;;13.05;11.65;;;;;;;;;;5029350;28;20486;-84
2022/08/14 06:44:09;;;;;;;12.88;11.57;;;;;;;;;;5029606;28;20056;-84
2022/08/14 06:46:35;;;;;;;12.00;10.90;;;;;;;;;;5029754;28;20052;-83
2022/08/14 06:49:01;;;;;;;11.77;10.50;;;;;;;;;;5037307;28;20115;-85
2022/08/14 06:51:27;;;;;;;11.98;10.77;;;;;;;;;;5045507;28;20379;-83
2022/08/14 06:53:54;;;;;;;13.82;10.73;;;;;;;;;;5010713;28;20042;-84
2022/08/14 06:56:20;;;;;;;11.43;10.20;;;;;;;;;;5026190;28;20458;-84
2022/08/14 06:58:46;;;;;;;10.90;9.77;;;;;;;;;;5029462;28;20053;-83
2022/08/14 07:06:42;;;;;;;12.85;9.65;;;;;;;;;;5031736;28;20068;-84
2022/08/14 07:09:09;;;;;;;9.93;8.95;;;;;;;;;;5030401;28;20060;-84
2022/08/14 07:11:35;;;;;;;11.18;9.55;;;;;;;;;;5030761;28;20046;-84
2022/08/14 07:14:01;;;;;;;11.10;9.60;;;;;;;;;;5037618;28;20864;-84
2022/08/14 07:16:27;;;;;;;10.65;8.98;;;;;;;;;;5050205;28;20056;-86
2022/08/14 07:18:53;;;;;;;9.60;8.60;;;;;;;;;;5034058;28;20128;-84
2022/08/14 07:21:19;;;;;;;11.05;9.27;;;;;;;;;;5028307;28;20406;-84
2022/08/14 07:23:45;;;;;;;11.30;9.30;;;;;;;;;;5013519;28;20494;-84
2022/08/14 07:26:12;;;;;;;10.05;9.05;;;;;;;;;;5029678;28;20475;-84
2022/08/14 07:28:41;;;;;;;10.60;9.48;;;;;;;;;;5029290;28;20502;-84
2022/08/14 07:31:09;;;;;;;9.57;8.63;;;;;;;;;;5029553;28;20092;-84
2022/08/14 07:33:43;;;;;;;9.65;8.65;;;;;;;;;;5084737;22;20031;-75
2022/08/14 07:36:11;;;;;;;9.65;8.65;;;;;;;;;;5081573;28;20072;-76
2022/08/14 07:38:39;;;;;;;9.93;8.93;;;;;;;;;;5080782;28;20055;-76
2022/08/14 07:41:07;;;;;;;11.02;8.63;;;;;;;;;;5077460;28;20039;-76
2022/08/14 07:43:34;;;;;;;9.27;8.38;;;;;;;;;;5085975;28;20020;-77
2022/08/14 07:46:00;;;;;;;8.75;7.85;;;;;;;;;;5075325;28;20032;-83
2022/08/14 07:48:26;;;;;;;9.57;8.68;;;;;;;;;;5073662;28;20051;-77
2022/08/14 07:50:53;;;;;;;10.20;8.45;;;;;;;;;;5079122;28;20040;-77
2022/08/14 07:53:20;;;;;;;8.98;8.07;;;;;;;;;;5079080;28;20037;-77
2022/08/14 07:55:46;;;;;;;10.80;8.45;;;;;;;;;;5078395;28;20029;-78
2022/08/14 07:58:13;;;;;;;9.02;8.13;;;;;;;;;;5077240;28;20085;-78
2022/08/14 08:00:39;;;;;;;9.65;8.30;;;;;;;;;;5078251;28;20055;-78
2022/08/14 08:03:08;;;;;;;9.38;8.40;;;;;;;;;;5079001;28;20047;-78
2022/08/14 08:05:35;;;;;;;9.52;8.02;;;;;;;;;;5078890;28;20059;-77
2022/08/14 08:08:02;;;;;;;9.80;8.80;;;;;;;;;;5077235;28;20085;-77
2022/08/14 08:10:31;;;;;;;10.52;8.32;;;;;;;;;;5078791;28;20054;-77
2022/08/14 08:13:00;;;;;;;10.52;8.43;;;;;;;;;;5077615;28;20029;-77
2022/08/14 08:15:27;;;;;;;9.50;8.60;;;;;;;;;;5078701;28;20044;-77
2022/08/14 08:17:54;;;;;;;8.85;7.72;;;;;;;;;;5078652;28;20052;-78
2022/08/14 08:20:25;;;;;;;9.95;7.85;;;;;;;;;;5078487;28;20093;-78
2022/08/14 08:22:57;;;;;;;8.85;7.95;;;;;;;;;;5077938;28;20040;-78
2022/08/14 08:25:24;;;;;;;9.20;8.05;;;;;;;;;;5078541;28;20056;-78
2022/08/14 08:27:56;;;;;;;8.90;8.10;;;;;;;;;;5077091;28;20029;-78
2022/08/14 08:30:22;;;;;;;8.60;7.47;;;;;;;;;;5078424;28;20037;-77
2022/08/14 08:32:51;;;;;;;10.10;8.57;;;;;;;;;;5078275;28;20096;-77
2022/08/14 08:35:19;;;;;;;9.90;8.77;;;;;;;;;;5078330;28;20072;-77
2022/08/14 08:37:46;;;;;;;9.13;8.20;;;;;;;;;;5078339;28;20029;-77
2022/08/14 08:40:21;;;;;;;8.93;7.95;;;;;;;;;;5078285;28;20033;-77
2022/08/14 08:42:47;;;;;;;;;;;;;;;;;;5074286;28;20045;-77
2022/08/14 08:45:13;;;;;;;;;;;;;;;;;;5078577;28;19940;-78
2022/08/14 08:47:39;;;;;;;;;;;;;;;;;;5078003;28;19908;-78
2022/08/14 08:50:05;;;;;;;;;;;;;;;;;;5078242;28;19935;-78
2022/08/14 08:52:31;;;;;;;9.43;7.97;;;;;;;;;;5078302;28;19909;-78
2022/08/14 08:54:57;;;;;;;8.10;7.30;;;;;;;;;;5078095;28;20036;-77
2022/08/14 08:57:24;;;;;;;8.65;7.85;;;;;;;;;;5076337;28;20041;-78
2022/08/14 08:59:50;;;;;;;8.65;7.78;;;;;;;;;;5078034;28;20035;-77
2022/08/14 09:02:17;;;;;;;8.95;7.82;;;;;;;;;;5077491;28;20028;-78
2022/08/14 09:04:43;;;;;;;8.68;7.82;;;;;;;;;;5078011;28;20034;-78
2022/08/14 09:07:09;;;;;;;7.35;6.70;;;;;;;;;;5078036;28;20021;-77
2022/08/14 09:09:50;;;;;;;8.60;7.55;;;;;;;;;;5078055;28;20021;-77
2022/08/14 09:12:16;;;;;;;8.57;7.78;;;;;;;;;;5075089;28;20072;-78
2022/08/14 09:14:42;;;;;;;8.48;7.57;;;;;;;;;;5076211;28;20067;-78
2022/08/14 09:17:08;;;;;;;8.50;7.70;;;;;;;;;;5075409;28;20080;-78
2022/08/14 09:19:36;;;;;;;7.78;7.03;;;;;;;;;;5067972;28;20064;-78
2022/08/14 09:22:02;;;;;;;7.88;7.18;;;;;;;;;;5080842;28;20029;-78
2022/08/14 09:24:29;;;;;;;8.13;7.43;;;;;;;;;;5081922;28;20032;-78
2022/08/14 09:26:55;;;;;;;8.02;7.15;;;;;;;;;;5080531;28;20029;-77
2022/08/14 09:29:21;;;;;;;7.60;6.90;;;;;;;;;;5080203;28;20100;-77
2022/08/14 09:31:50;;;;;;;7.32;6.63;;;;;;;;;;5078106;28;20013;-77
2022/08/14 09:34:35;;;;;;;8.25;7.20;;;;;;;;;;5080093;28;20041;-78
2022/08/14 09:37:20;;;;;;;8.05;7.32;;;;;;;;;;5081378;28;20085;-78
2022/08/14 09:40:08;;;;;;;7.87;7.07;;;;;;;;;;5081442;28;20033;-78
2022/08/14 09:42:34;;;;;;;7.50;6.78;;;;;;;;;;5079275;28;20025;-78
2022/08/14 09:45:17;;;;;;;9.63;6.95;;;;;;;;;;5080865;28;20036;-78
2022/08/14 09:47:48;;;;;;;7.30;6.60;;;;;;;;;;5076686;28;20041;-77
2022/08/14 09:50:20;;;;;;;7.45;6.68;;;;;;;;;;5061339;28;20109;-77
2022/08/14 09:52:50;;;;;;;7.38;6.18;;;;;;;;;;5067016;28;20059;-81
2022/08/14 09:55:20;;;;;;;8.85;6.72;;;;;;;;;;5076722;28;20017;-78
2022/08/14 09:57:46;;;;;;;7.22;6.30;;;;;;;;;;5072944;28;20037;-78
2022/08/14 10:00:13;;;;;;;7.35;6.65;;;;;;;;;;5061164;28;20120;-80
2022/08/14 10:02:50;;;;;;;7.32;6.35;;;;;;;;;;5078360;28;20045;-83
2022/08/14 10:05:27;;;;;;;7.53;6.45;;;;;;;;;;5062956;28;20037;-83
2022/08/14 10:07:53;;;;;;;8.48;6.82;;;;;;;;;;5059653;28;20037;-81
2022/08/14 10:10:37;;;;;;;7.25;6.55;;;;;;;;;;5053517;28;20036;-83
2022/08/14 10:13:04;;;;;;;6.95;6.18;;;;;;;;;;5080078;28;20029;-78
2022/08/14 10:15:31;;;;;;;6.78;6.18;;;;;;;;;;5080196;28;20053;-78
2022/08/14 10:18:08;;;;;;;6.70;6.10;;;;;;;;;;5080927;28;20029;-78
2022/08/14 10:20:37;;;;;;;6.93;6.22;;;;;;;;;;5079975;28;20063;-77
2022/08/14 10:23:29;;;;;;;6.85;6.18;;;;;;;;;;5080880;28;20037;-77
2022/08/14 10:26:04;;;;;;;7.03;6.43;;;;;;;;;;5061929;28;20037;-77
2022/08/14 10:28:38;;;;;;;6.63;6.07;;;;;;;;;;5080532;28;20032;-77
2022/08/14 10:31:04;;;;;;;6.57;6.03;;;;;;;;;;5079796;28;20083;-77
2022/08/14 10:33:31;;;;;;;6.72;6.13;;;;;;;;;;5079597;28;20039;-77
2022/08/14 10:36:01;;;;;;;6.78;6.18;;;;;;;;;;5079975;28;20045;-77
2022/08/14 10:38:33;;;;;;;7.00;6.13;;;;;;;;;;5068029;28;20024;-79
2022/08/14 10:41:17;;;;;;;7.07;6.47;;;;;;;;;;5079162;28;20035;-85
2022/08/14 10:43:44;;;;;;;6.18;5.60;;;;;;;;;;5079398;28;20037;-79
2022/08/14 10:46:15;;;;;;;6.63;6.03;;;;;;;;;;5078170;28;20032;-78
2022/08/14 10:48:42;;;;;;;5.78;5.20;;;;;;;;;;5080315;28;20084;-78
2022/08/14 10:51:08;;;;;;;6.18;5.30;;;;;;;;;;5063076;28;20048;-78
2022/08/14 10:53:36;;;;;;;6.25;5.65;;;;;;;;;;5080168;28;20053;-78
2022/08/14 10:56:05;;;;;;;6.80;5.80;;;;;;;;;;5078945;28;20055;-78
2022/08/14 10:58:32;;;;;;;6.55;5.95;;;;;;;;;;5080191;28;20025;-78
2022/08/14 11:01:00;;;;;;;6.45;5.85;;;;;;;;;;5079348;28;20033;-78
2022/08/14 11:03:36;;;;;;;6.25;5.68;;;;;;;;;;5079092;28;20044;-77
2022/08/14 11:06:14;;;;;;;6.93;6.22;;;;;;;;;;5071147;28;20079;-77
2022/08/14 11:08:40;;;;;;;7.22;6.45;;;;;;;;;;5070766;28;20021;-77
2022/08/14 11:11:06;;;;;;;7.07;5.90;;;;;;;;;;5072718;28;20044;-77
2022/08/14 11:13:32;;;;;;;6.55;5.93;;;;;;;;;;5079141;28;20116;-77
2022/08/14 11:15:59;;;;;;;6.82;6.13;;;;;;;;;;5079293;28;20044;-77
2022/08/14 11:18:26;;;;;;;6.82;6.15;;;;;;;;;;5079755;28;20033;-77
2022/08/14 11:20:58;;;;;;;6.45;5.85;;;;;;;;;;5079683;28;20105;-77
2022/08/14 11:23:28;;;;;;;7.25;6.25;;;;;;;;;;5079056;28;20055;-77
2022/08/14 11:25:56;;;;;;;6.95;6.28;;;;;;;;;;5079641;28;20057;-77
2022/08/14 11:28:24;;;;;;;6.82;6.00;;;;;;;;;;5061866;28;20028;-77
2022/08/14 11:30:50;;;;;;;6.75;5.95;;;;;;;;;;5078372;28;20044;-77
2022/08/14 11:33:21;;;;;;;6.93;6.22;;;;;;;;;;5073825;28;20038;-78
2022/08/14 11:35:48;;;;;;;6.20;5.70;;;;;;;;;;5060359;28;20045;-78
2022/08/14 11:38:16;;;;;;;6.03;5.50;;;;;;;;;;5059408;28;20055;-77
2022/08/14 11:40:42;;;;;;;7.43;5.95;;;;;;;;;;5059089;28;20044;-77
2022/08/14 11:43:09;;;;;;;6.40;5.80;;;;;;;;;;5075758;28;20112;-77
2022/08/14 11:45:36;;;;;;;6.63;6.13;;;;;;;;;;5078292;28;20021;-78
2022/08/14 11:48:14;;;;;;;6.82;6.20;;;;;;;;;;5079068;28;20028;-77
2022/08/14 11:50:40;;;;;;;6.43;5.82;;;;;;;;;;5078721;28;20032;-77
2022/08/14 11:53:07;;;;;;;6.30;5.70;;;;;;;;;;5079050;28;20025;-77
2022/08/14 11:55:34;;;;;;;8.07;5.70;;;;;;;;;;5078893;28;20081;-77
2022/08/14 11:58:07;;;;;;;6.63;6.03;;;;;;;;;;5078162;28;20089;-77
2022/08/14 12:00:33;;;;;;;6.60;6.00;;;;;;;;;;5078164;28;20068;-77
2022/08/14 12:03:00;;;;;;;6.60;5.93;;;;;;;;;;5078323;28;20045;-81
2022/08/14 12:05:29;;;;;;;6.60;6.00;;;;;;;;;;5071784;28;20032;-78
2022/08/14 12:07:56;;;;;;;7.10;6.40;;;;;;;;;;5072752;28;20120;-77
2022/08/14 12:10:23;;;;;;;6.85;6.00;;;;;;;;;;5077227;28;20516;-78
2022/08/14 12:12:53;;;;;;;7.10;6.38;;;;;;;;;;5068455;28;20068;-76
2022/08/14 12:15:28;;;;;;;6.80;6.20;;;;;;;;;;5077111;28;20029;-75
2022/08/14 12:17:55;;;;;;;7.03;6.40;;;;;;;;;;5071485;28;20048;-77
2022/08/14 12:20:28;;;;;;;6.70;6.00;;;;;;;;;;5077732;28;20056;-77
2022/08/14 12:22:54;;;;;;;8.55;5.90;;;;;;;;;;5078087;28;20127;-77
2022/08/14 12:25:23;;;;;;;6.25;5.75;;;;;;;;;;5078524;28;20021;-77
2022/08/14 12:27:51;;;;;;;6.78;5.88;;;;;;;;;;5078351;28;20061;-77
2022/08/14 12:30:37;;;;;;;5.97;5.47;;;;;;;;;;5077601;28;20044;-77
2022/08/14 12:33:05;;;;;;;6.03;5.53;;;;;;;;;;5078245;28;20041;-77
2022/08/14 12:35:37;;;;;;;6.15;5.65;;;;;;;;;;5078395;28;20055;-77
2022/08/14 12:38:03;;;;;;;6.40;5.90;;;;;;;;;;5077647;28;20057;-77
2022/08/14 12:40:30;;;;;;;6.18;5.68;;;;;;;;;;5078311;28;20032;-77
2022/08/14 12:43:02;;;;;;;6.20;5.70;;;;;;;;;;5077945;28;20060;-78
2022/08/14 12:45:34;;;;;;;6.15;5.45;;;;;;;;;;5078202;28;20028;-78
2022/08/14 12:48:01;;;;;;;5.75;5.15;;;;;;;;;;5078343;28;20033;-78
2022/08/14 12:50:41;;;;;;;6.03;5.38;;;;;;;;;;5077125;28;20060;-78
2022/08/14 12:53:08;;;;;;;5.75;5.25;;;;;;;;;;5077926;28;20031;-78
2022/08/14 12:55:34;;;;;;;8.23;5.72;;;;;;;;;;5077958;28;20025;-78
2022/08/14 12:58:04;;;;;;;7.18;5.15;;;;;;;;;;5077484;28;20953;-78
2022/08/14 13:00:30;;;;;;;5.18;4.78;;;;;;;;;;5078092;28;20035;-78
2022/08/14 13:02:57;;;;;;;6.40;5.35;;;;;;;;;;5077648;28;20033;-78
2022/08/14 13:05:24;;;;;;;5.90;5.40;;;;;;;;;;5077478;28;20108;-79
2022/08/14 13:07:51;;;;;;;6.20;5.60;;;;;;;;;;5078066;28;20055;-78
2022/08/14 13:10:19;;;;;;;5.75;5.25;;;;;;;;;;5078018;28;20031;-78
2022/08/14 13:12:46;;;;;;;6.82;5.70;;;;;;;;;;5077343;28;20041;-78
2022/08/14 13:15:13;;;;;;;5.78;5.22;;;;;;;;;;5077467;28;20053;-79
2022/08/14 13:17:50;;;;;;;6.20;5.60;;;;;;;;;;5078007;28;20028;-78
2022/08/14 13:20:20;;;;;;;6.53;6.03;;;;;;;;;;5076988;28;20032;-78
2022/08/14 13:22:46;;;;;;;6.32;5.53;;;;;;;;;;5077907;28;20036;-79
2022/08/14 13:25:14;;;;;;;5.88;5.38;;;;;;;;;;5077425;28;20033;-78
2022/08/14 13:27:42;;;;;;;6.15;5.55;;;;;;;;;;5077172;28;20063;-78
2022/08/14 13:30:09;;;;;;;6.10;5.60;;;;;;;;;;5077103;28;20096;-78
2022/08/14 13:32:38;;;;;;;6.00;5.40;;;;;;;;;;5077627;28;20041;-79
2022/08/14 13:35:04;;;;;;;6.22;5.72;;;;;;;;;;5077224;28;20033;-78
2022/08/14 13:37:30;;;;;;;6.25;5.75;;;;;;;;;;5076833;28;20072;-75
2022/08/14 13:39:57;;;;;;;5.85;5.38;;;;;;;;;;5077631;28;20049;-75
2022/08/14 13:42:26;;;;;;;5.85;5.35;;;;;;;;;;5077774;28;20033;-75
2022/08/14 13:44:53;;;;;;;6.82;5.93;;;;;;;;;;5077022;28;20097;-75
2022/08/14 13:47:23;;;;;;;6.38;5.82;;;;;;;;;;5077682;28;20032;-75
2022/08/14 13:49:50;;;;;;;6.95;6.35;;;;;;;;;;5076966;28;20033;-76
2022/08/14 13:52:17;;;;;;;6.93;6.32;;;;;;;;;;5077012;28;20096;-76
2022/08/14 13:54:47;;;;;;;6.57;6.05;;;;;;;;;;5060460;28;20033;-76
2022/08/14 13:57:16;;;;;;;7.38;6.68;;;;;;;;;;5077711;28;20033;-76
2022/08/14 13:59:51;;;;;;;6.75;6.15;;;;;;;;;;5076576;28;20028;-76
2022/08/14 14:02:20;;;;;;;6.57;6.03;;;;;;;;;;5077558;28;20029;-76
2022/08/14 14:04:47;;;;;;;6.95;6.25;;;;;;;;;;5077367;28;20052;-76
2022/08/14 14:07:14;;;;;;;7.47;6.70;;;;;;;;;;5079210;28;20025;-76
2022/08/14 14:09:42;;;;;;;6.93;6.20;;;;;;;;;;5079386;28;20055;-76
2022/08/14 14:12:08;;;;;;;7.20;6.60;;;;;;;;;;5081148;28;20029;-75
2022/08/14 14:14:38;;;;;;;7.30;6.53;;;;;;;;;;5081013;28;20025;-76
2022/08/14 14:17:04;;;;;;;7.25;6.55;;;;;;;;;;5080763;28;20024;-76
2022/08/14 14:19:33;;;;;;;6.70;6.10;;;;;;;;;;5080893;28;20068;-76
2022/08/14 14:22:00;;;;;;;7.07;6.47;;;;;;;;;;5080830;28;20040;-75
2022/08/14 14:24:26;;;;;;;7.18;6.53;;;;;;;;;;5079799;28;20036;-75
2022/08/14 14:26:52;;;;;;;7.68;6.50;;;;;;;;;;5080486;28;20087;-75
2022/08/14 14:29:19;;;;;;;6.78;6.28;;;;;;;;;;5080596;28;20043;-75
2022/08/14 14:31:47;;;;;;;7.65;6.95;;;;;;;;;;5080630;28;20033;-76
2022/08/14 14:34:15;;;;;;;7.82;7.03;;;;;;;;;;5080669;28;20036;-76
2022/08/14 14:36:43;;;;;;;7.47;6.75;;;;;;;;;;5080487;28;20025;-75
2022/08/14 14:39:09;;;;;;;7.85;6.28;;;;;;;;;;5079576;28;20092;-76
2022/08/14 14:41:38;;;;;;;7.70;6.90;;;;;;;;;;5080021;28;20071;-75
2022/08/14 14:44:10;;;;;;;8.02;6.43;;;;;;;;;;5080360;28;20025;-75
2022/08/14 14:46:38;;;;;;;7.30;6.70;;;;;;;;;;5080377;28;20033;-75
2022/08/14 14:49:06;;;;;;;7.18;6.47;;;;;;;;;;5080284;28;20032;-75
2022/08/14 14:51:32;;;;;;;6.90;6.28;;;;;;;;;;5080342;28;20038;-75